Detroit/Metropolitan Wayne County

Airport
ICAO code: 
KDTW
Summary
ICAO Region: 
NAM
Territory: 
Location: 
Romulus, Detroit, Michigan,
Elevation: 
645 ft
Coordinates: 
Aerial View: 
42° 12' 44.635" N, 83° 21' 12.244" W
Metar
Observation
KDTW 021553Z 25014KT 10SM FEW250 12/04 A2962 RMK AO2 SLP031 T01170044
Station
Detroit, Detroit Metropolitan Wayne County Airport
Date/Time
2021-12-02 15:53:00
Wind direction
250°
Wind speed
14 kts
Lowest cloud amount
few clouds
Temperature
11.7°C
Dew point
4.4°C
Humidity
60%
Weather condition
n/a

Description

Detroit Metropolitan Wayne County Airport, usually called Detroit Metro Airport, Metro Airport locally, or simply DTW, is a major international airport in Romulus, Michigan, a suburb of Detroit.

Climatology

Humid continental climate (Köppen climate classification Dfa) - characterized by four seasons: cold, windy, snowy winters, mild springs, hot, humid summers, and crisp and relatively short autumns. Precipitation reaches its lowest in January and February and peaks in summer and latter half of spring.

Runways

Designator Length Width Surface Rops
03L/21R 2591 61 PEM Yes/Yes
09R/27L 2591 46 CON Yes/Yes
09L/27R 2654 61 PEM Yes/Yes
03R/21L 3048 46 CON Yes/Yes
04L/22R 3048 46 CON Yes/Yes
04R/22L 3659 61 CON Yes/Yes
Airport map: 
Aerial View: 

Accidents and Serious Incidents at or in the vicinity of KDTW

SKYbrary Partners:

Safety knowledge contributed by: